createdAt,value
2023-04-19T00:00:25.663Z,54.25
2023-04-19T00:03:14.812Z,41.25
2023-04-19T00:05:42.696Z,47.25
2023-04-19T00:08:09.965Z,51.50
2023-04-19T00:10:37.663Z,53.00
2023-04-19T00:13:05.147Z,41.00
2023-04-19T00:15:32.307Z,52.00
2023-04-19T00:17:59.700Z,54.25
2023-04-19T00:20:27.272Z,62.50
2023-04-19T00:22:54.737Z,59.00
2023-04-19T00:25:21.619Z,53.00
2023-04-19T00:27:48.947Z,51.00
2023-04-19T00:30:15.838Z,61.50
2023-04-19T00:32:43.387Z,54.75
2023-04-19T00:35:11.119Z,54.00
2023-04-19T00:37:38.366Z,51.25
2023-04-19T00:40:06.259Z,53.50
2023-04-19T00:42:33.930Z,57.25
2023-04-19T00:45:00.899Z,55.25
2023-04-19T00:47:28.620Z,63.75
2023-04-19T00:49:56.224Z,58.25
2023-04-19T00:52:23.555Z,64.75
2023-04-19T00:54:50.680Z,68.25
2023-04-19T00:57:18.862Z,59.75
2023-04-19T00:59:46.105Z,64.00
2023-04-19T01:02:13.489Z,64.00
2023-04-19T01:04:40.868Z,64.50
2023-04-19T01:07:09.126Z,63.75
2023-04-19T01:09:36.062Z,58.75
2023-04-19T01:12:03.782Z,57.50
2023-04-19T01:14:30.793Z,56.25
2023-04-19T01:16:58.235Z,64.25
2023-04-19T01:19:25.557Z,65.50
2023-04-19T01:21:52.976Z,66.25
2023-04-19T01:24:19.926Z,59.50
2023-04-19T01:26:48.203Z,63.50
2023-04-19T01:29:15.917Z,65.50
2023-04-19T01:31:43.131Z,65.50
2023-04-19T01:34:10.464Z,62.25
2023-04-19T01:36:37.695Z,65.75
2023-04-19T01:39:04.570Z,58.50
2023-04-19T01:41:32.706Z,62.25
2023-04-19T01:44:00.932Z,61.00
2023-04-19T01:46:28.217Z,61.50
2023-04-19T01:48:55.436Z,59.25
2023-04-19T01:51:23.020Z,62.75
2023-04-19T01:53:54.754Z,63.50
2023-04-19T01:56:24.013Z,59.50
2023-04-19T01:58:51.316Z,64.25
2023-04-19T02:01:18.562Z,65.50
2023-04-19T02:03:46.597Z,64.75
2023-04-19T02:06:14.429Z,65.50
2023-04-19T02:08:42.491Z,63.00
2023-04-19T02:11:10.923Z,58.50
2023-04-19T02:13:38.006Z,61.25
2023-04-19T02:16:06.145Z,54.25
2023-04-19T02:18:36.214Z,45.25
2023-04-19T02:21:03.688Z,60.75
2023-04-19T02:23:30.917Z,59.25
2023-04-19T02:25:59.064Z,63.00
2023-04-19T02:28:26.015Z,63.75
2023-04-19T02:30:53.278Z,58.75
2023-04-19T02:33:22.124Z,53.00
2023-04-19T02:35:49.387Z,62.25
2023-04-19T02:38:16.685Z,58.25
2023-04-19T02:40:44.609Z,54.50
2023-04-19T02:43:11.584Z,64.00
2023-04-19T02:45:38.892Z,63.00
2023-04-19T02:48:06.737Z,62.00
2023-04-19T02:50:33.941Z,60.50
2023-04-19T02:53:00.849Z,58.75
2023-04-19T02:55:28.373Z,59.25
2023-04-19T02:57:55.506Z,61.25
2023-04-19T03:00:22.717Z,58.75
2023-04-19T03:02:50.408Z,60.50
2023-04-19T03:05:17.780Z,52.50
2023-04-19T03:07:44.834Z,59.50
2023-04-19T03:10:12.402Z,60.00
2023-04-19T03:12:39.329Z,63.50
2023-04-19T03:15:08.161Z,59.00
2023-04-19T03:17:36.100Z,60.50
2023-04-19T03:20:05.099Z,57.00
2023-04-19T03:22:32.004Z,59.75
2023-04-19T03:24:59.803Z,59.75
2023-04-19T03:27:26.780Z,54.75
2023-04-19T03:29:55.945Z,58.25
2023-04-19T03:32:23.172Z,62.75
2023-04-19T03:34:50.482Z,52.25
2023-04-19T03:37:17.419Z,56.00
2023-04-19T03:39:44.792Z,53.50
2023-04-19T03:42:11.692Z,45.00
2023-04-19T03:44:38.920Z,57.00
2023-04-19T03:47:05.994Z,54.25
2023-04-19T03:49:33.191Z,46.00
2023-04-19T03:52:00.120Z,50.75
2023-04-19T03:54:27.794Z,46.50
2023-04-19T03:56:54.691Z,51.00
2023-04-19T03:59:22.158Z,47.50
2023-04-19T04:01:49.519Z,51.00
2023-04-19T04:04:17.174Z,54.25
2023-04-19T04:06:44.516Z,58.25
2023-04-19T04:09:11.929Z,49.50
2023-04-19T04:11:38.856Z,52.25
2023-04-19T04:14:06.782Z,55.50
2023-04-19T04:16:34.127Z,53.50
2023-04-19T04:19:01.352Z,51.50
2023-04-19T04:21:28.370Z,52.00
2023-04-19T04:23:55.920Z,48.75
2023-04-19T04:26:25.318Z,56.75
2023-04-19T04:28:52.545Z,44.50
2023-04-19T04:31:19.786Z,51.25
2023-04-19T04:33:47.081Z,38.50
2023-04-19T04:36:14.122Z,39.00
2023-04-19T04:38:41.589Z,44.50
2023-04-19T04:41:08.910Z,44.50
2023-04-19T04:43:36.379Z,38.25
2023-04-19T04:46:04.431Z,34.00
2023-04-19T04:48:31.861Z,41.75
2023-04-19T04:50:58.784Z,46.25
2023-04-19T04:53:27.176Z,33.25
2023-04-19T04:55:54.567Z,49.50
2023-04-19T04:58:21.877Z,46.75
2023-04-19T05:00:49.229Z,57.50
2023-04-19T05:03:16.893Z,57.25
2023-04-19T05:05:45.210Z,59.50
2023-04-19T05:08:13.021Z,58.00
2023-04-19T05:10:39.968Z,60.00
2023-04-19T05:13:07.192Z,58.50
2023-04-19T05:15:34.585Z,61.75
2023-04-19T05:18:02.873Z,70.50
2023-04-19T05:20:30.419Z,65.25
2023-04-19T05:23:03.425Z,68.00
2023-04-19T05:25:30.406Z,52.75
2023-04-19T05:27:58.273Z,59.00
2023-04-19T05:30:25.592Z,50.25
2023-04-19T05:32:52.923Z,53.75
2023-04-19T05:35:20.273Z,56.25
2023-04-19T05:37:48.050Z,49.25
2023-04-19T05:40:15.151Z,56.50
2023-04-19T05:42:42.713Z,54.00
2023-04-19T05:45:10.321Z,52.00
2023-04-19T05:47:37.571Z,41.75
2023-04-19T05:50:05.010Z,39.25
2023-04-19T05:52:32.950Z,46.00
2023-04-19T05:54:59.839Z,47.25
2023-04-19T05:57:27.479Z,46.25
2023-04-19T05:59:54.576Z,56.25
2023-04-19T06:02:21.960Z,44.50
2023-04-19T06:04:49.771Z,60.50
2023-04-19T06:07:30.779Z,55.75
2023-04-19T06:09:59.661Z,48.00
2023-04-19T06:12:27.551Z,54.25
2023-04-19T06:14:54.607Z,54.50
2023-04-19T06:17:25.146Z,37.50
2023-04-19T06:19:53.267Z,54.00
2023-04-19T06:22:21.439Z,42.25
2023-04-19T06:24:48.870Z,51.75
2023-04-19T06:27:17.123Z,53.75
2023-04-19T06:29:44.054Z,48.25
2023-04-19T06:32:11.400Z,62.50
2023-04-19T06:34:38.729Z,60.75
2023-04-19T06:37:05.992Z,58.75
2023-04-19T06:39:32.871Z,42.50
2023-04-19T06:42:00.582Z,42.75
2023-04-19T06:44:28.031Z,50.75
2023-04-19T06:46:55.189Z,38.00
2023-04-19T06:49:23.061Z,53.25
2023-04-19T06:51:50.244Z,40.75
2023-04-19T06:54:17.527Z,54.50
2023-04-19T06:56:47.137Z,61.00
2023-04-19T06:59:17.365Z,63.50
2023-04-19T07:01:45.839Z,67.25
2023-04-19T07:04:14.218Z,60.75
2023-04-19T07:06:41.776Z,64.00
2023-04-19T07:09:08.998Z,57.75
2023-04-19T07:11:36.823Z,53.00
2023-04-19T07:14:03.916Z,39.33
2023-04-19T07:16:31.381Z,44.50
2023-04-19T07:18:59.120Z,27.00
2023-04-19T07:21:30.442Z,28.33
2023-04-19T07:23:57.490Z,25.00
2023-04-19T07:26:25.650Z,13.00
2023-04-19T07:28:52.740Z,19.00
2023-04-19T07:31:20.142Z,16.75
2023-04-19T07:33:47.370Z,11.75
2023-04-19T07:36:14.561Z,6.00
2023-04-19T07:38:41.518Z,9.75
2023-04-19T07:41:09.365Z,8.00
2023-04-19T07:43:38.155Z,10.00
2023-04-19T07:46:13.923Z,9.00
2023-04-19T07:48:41.228Z,3.25
2023-04-19T07:51:13.287Z,8.50
2023-04-19T07:53:41.924Z,7.00
2023-04-19T07:56:12.882Z,8.00
2023-04-19T07:58:41.591Z,7.75
2023-04-19T08:01:09.088Z,7.75
2023-04-19T08:03:37.193Z,6.00
2023-04-19T08:06:07.325Z,7.33
2023-04-19T08:08:34.453Z,8.00
2023-04-19T08:11:02.593Z,9.75
2023-04-19T08:13:30.106Z,18.50
2023-04-19T08:18:27.950Z,14.75
2023-04-19T08:20:56.798Z,17.75
2023-04-19T08:23:27.780Z,17.00
2023-04-19T08:26:02.305Z,20.50
2023-04-19T08:28:29.513Z,21.75
2023-04-19T08:30:58.998Z,26.00
2023-04-19T08:33:26.322Z,18.00
2023-04-19T08:35:53.520Z,16.25
2023-04-19T08:38:20.476Z,16.25
2023-04-19T08:40:52.477Z,15.25
2023-04-19T08:43:19.874Z,15.75
2023-04-19T08:45:48.679Z,17.00
2023-04-19T08:48:17.292Z,14.75
2023-04-19T08:51:03.306Z,12.00
2023-04-19T08:53:31.619Z,12.75
2023-04-19T08:58:45.675Z,11.00
2023-04-19T09:01:22.817Z,10.00
2023-04-19T09:04:07.261Z,3.33
2023-04-19T09:06:45.577Z,6.67
2023-04-19T09:09:38.709Z,7.00
2023-04-19T09:12:18.575Z,3.00
2023-04-19T09:17:18.276Z,7.00
2023-04-19T09:19:47.638Z,6.67
2023-04-19T09:22:15.128Z,7.67
2023-04-19T09:27:13.319Z,6.00
2023-04-19T09:29:40.421Z,8.67
2023-04-19T09:32:07.984Z,5.67
2023-04-19T09:34:35.720Z,2.33
2023-04-19T09:37:27.617Z,6.67
2023-04-19T09:40:00.829Z,5.33
2023-04-19T09:48:01.580Z,3.00
2023-04-19T09:50:31.277Z,3.00
2023-04-19T09:52:59.612Z,15.00
2023-04-19T09:55:31.727Z,19.00
2023-04-19T09:58:06.117Z,13.33
2023-04-19T10:00:45.211Z,19.00
2023-04-19T10:03:16.381Z,18.00
2023-04-19T10:05:44.776Z,11.67
2023-04-19T10:08:13.723Z,18.67
2023-04-19T10:10:42.941Z,14.67
2023-04-19T10:15:51.983Z,11.33
2023-04-19T10:18:23.360Z,7.00
2023-04-19T10:20:57.393Z,6.00
2023-04-19T10:23:25.108Z,6.67
2023-04-19T10:25:57.782Z,10.67
2023-04-19T10:28:25.573Z,9.00
2023-04-19T10:30:54.742Z,4.67
2023-04-19T10:33:32.019Z,7.33
2023-04-19T10:36:00.405Z,9.00
2023-04-19T10:38:43.500Z,5.67
2023-04-19T10:41:16.487Z,9.00
2023-04-19T10:43:57.885Z,10.33
2023-04-19T10:46:26.124Z,16.00
2023-04-19T10:48:57.882Z,6.67
2023-04-19T10:51:48.351Z,7.33
2023-04-19T10:54:32.755Z,7.67
2023-04-19T10:57:08.018Z,2.00
2023-04-19T10:59:36.845Z,6.00
2023-04-19T11:02:05.684Z,4.00
2023-04-19T11:04:33.604Z,10.00
2023-04-19T11:07:07.432Z,8.33
2023-04-19T11:09:39.703Z,5.33
2023-04-19T11:12:08.996Z,4.00
2023-04-19T11:14:41.779Z,4.00
2023-04-19T11:17:32.270Z,9.67
2023-04-19T11:20:03.883Z,8.33
2023-04-19T11:22:41.778Z,5.00
2023-04-19T11:25:10.729Z,7.00
2023-04-19T11:27:38.788Z,4.67
2023-04-19T11:30:17.376Z,6.00
2023-04-19T11:32:46.614Z,5.67
2023-04-19T11:35:14.771Z,7.00
2023-04-19T11:37:41.936Z,6.67
2023-04-19T11:40:10.146Z,6.00
2023-04-19T11:42:37.241Z,6.33
2023-04-19T11:45:06.204Z,7.00
2023-04-19T11:47:36.488Z,5.00
2023-04-19T11:50:33.040Z,4.67
2023-04-19T11:53:02.812Z,7.33
2023-04-19T11:55:33.755Z,6.00
2023-04-19T11:58:01.095Z,5.33
2023-04-19T12:00:30.188Z,5.33
2023-04-19T12:02:57.564Z,6.67
2023-04-19T12:05:25.230Z,6.00
2023-04-19T12:08:06.876Z,5.67
2023-04-19T12:10:34.917Z,14.33
2023-04-19T12:13:17.415Z,16.33
2023-04-19T12:15:45.899Z,18.67
2023-04-19T12:18:13.161Z,18.67
2023-04-19T12:20:46.272Z,24.00
2023-04-19T12:23:17.061Z,29.75
2023-04-19T12:25:46.718Z,42.25
2023-04-19T12:28:14.759Z,34.25
2023-04-19T12:30:42.443Z,37.75
2023-04-19T12:33:10.154Z,40.50
2023-04-19T12:35:38.697Z,38.25
2023-04-19T12:38:05.612Z,43.00
2023-04-19T12:40:33.334Z,48.50
2023-04-19T12:43:00.457Z,46.25
2023-04-19T12:45:27.895Z,45.50
2023-04-19T12:47:55.049Z,44.50
2023-04-19T12:50:22.457Z,38.75
2023-04-19T12:52:49.430Z,50.00
2023-04-19T12:55:17.088Z,40.00
2023-04-19T12:57:44.358Z,44.00
2023-04-19T13:00:12.857Z,42.75
2023-04-19T13:02:40.049Z,38.25
2023-04-19T13:05:08.123Z,50.25
2023-04-19T13:07:35.085Z,12.25
2023-04-19T13:10:03.798Z,40.25
2023-04-19T13:12:31.031Z,54.25
2023-04-19T13:14:58.393Z,42.25
2023-04-19T13:17:25.475Z,52.50
2023-04-19T13:19:52.885Z,57.25
2023-04-19T13:22:19.850Z,58.75
2023-04-19T13:24:47.336Z,51.50
2023-04-19T13:27:14.329Z,38.50
2023-04-19T13:29:41.761Z,48.50
2023-04-19T13:32:12.557Z,52.75
2023-04-19T13:34:42.873Z,54.50
2023-04-19T13:37:10.035Z,50.50
2023-04-19T13:39:37.411Z,49.25
2023-04-19T13:42:04.560Z,54.75
2023-04-19T13:44:32.385Z,55.50
2023-04-19T13:47:02.174Z,54.50
2023-04-19T13:49:29.832Z,51.75
2023-04-19T13:51:57.013Z,59.50
2023-04-19T13:54:24.286Z,57.00
2023-04-19T13:56:52.409Z,43.50
2023-04-19T13:59:21.056Z,52.50
2023-04-19T14:01:48.049Z,57.50
2023-04-19T14:04:16.022Z,50.50
2023-04-19T14:06:43.568Z,48.50
2023-04-19T14:09:10.950Z,57.00
2023-04-19T14:11:39.118Z,50.25
2023-04-19T14:14:07.231Z,58.50
2023-04-19T14:16:34.314Z,58.75
2023-04-19T14:19:02.225Z,57.75
2023-04-19T14:21:31.706Z,51.50
2023-04-19T14:23:59.451Z,58.25
2023-04-19T14:26:27.761Z,53.25
2023-04-19T14:28:55.273Z,55.50
2023-04-19T14:31:22.292Z,58.00
2023-04-19T14:33:49.932Z,52.75
2023-04-19T14:36:17.051Z,50.75
2023-04-19T14:38:44.372Z,56.25
2023-04-19T14:41:11.493Z,57.75
2023-04-19T14:43:38.921Z,50.75
2023-04-19T14:46:07.633Z,58.00
2023-04-19T14:48:35.147Z,54.25
2023-04-19T14:51:02.259Z,63.50
2023-04-19T14:53:29.521Z,55.00
2023-04-19T14:55:56.457Z,54.00
2023-04-19T14:58:24.039Z,56.75
2023-04-19T15:00:51.036Z,59.25
2023-04-19T15:03:19.447Z,58.00
2023-04-19T15:05:46.998Z,57.00
2023-04-19T15:08:29.096Z,62.50
2023-04-19T15:10:57.820Z,56.50
2023-04-19T15:13:26.269Z,60.50
2023-04-19T15:15:53.431Z,53.50
2023-04-19T15:18:21.005Z,48.25
2023-04-19T15:20:47.978Z,54.00
2023-04-19T15:23:15.195Z,60.75
2023-04-19T15:25:42.615Z,54.00
2023-04-19T15:28:09.906Z,52.75
2023-04-19T15:30:36.906Z,51.75
2023-04-19T15:33:04.738Z,61.50
2023-04-19T15:35:32.321Z,55.25
2023-04-19T15:37:59.572Z,60.50
2023-04-19T15:40:28.463Z,50.50
2023-04-19T15:42:55.986Z,58.25
2023-04-19T15:45:23.086Z,61.25
2023-04-19T15:47:50.405Z,63.25
2023-04-19T15:50:17.633Z,55.00
2023-04-19T15:52:44.907Z,55.50
2023-04-19T15:55:12.252Z,61.25
2023-04-19T15:57:39.621Z,58.25
2023-04-19T16:00:09.530Z,60.75
2023-04-19T16:02:37.227Z,59.50
2023-04-19T16:05:04.801Z,61.25
2023-04-19T16:07:32.128Z,54.75
2023-04-19T16:09:59.308Z,58.75
2023-04-19T16:12:27.501Z,60.25
2023-04-19T16:14:54.741Z,56.25
2023-04-19T16:17:22.434Z,55.25
2023-04-19T16:19:49.693Z,56.00
2023-04-19T16:22:17.667Z,53.25
2023-04-19T16:24:46.541Z,58.75
2023-04-19T16:27:13.989Z,64.00
2023-04-19T16:29:41.780Z,60.25
2023-04-19T16:32:10.731Z,57.00
2023-04-19T16:34:37.894Z,64.25
2023-04-19T16:37:05.233Z,66.00
2023-04-19T16:39:32.635Z,53.75
2023-04-19T16:42:00.008Z,57.50
2023-04-19T16:44:27.006Z,63.25
2023-04-19T16:46:54.857Z,57.50
2023-04-19T16:49:22.482Z,68.25
2023-04-19T16:51:49.746Z,63.50
2023-04-19T16:54:17.152Z,65.25
2023-04-19T16:56:44.593Z,63.50
2023-04-19T16:59:11.556Z,63.50
2023-04-19T17:01:38.955Z,67.75
2023-04-19T17:04:06.406Z,68.75
2023-04-19T17:06:33.845Z,72.25
2023-04-19T17:09:08.029Z,55.75
2023-04-19T17:11:35.599Z,62.00
2023-04-19T17:14:02.692Z,71.50
2023-04-19T17:16:30.158Z,62.00
2023-04-19T17:18:57.304Z,70.75
2023-04-19T17:21:25.993Z,66.00
2023-04-19T17:23:53.010Z,73.50
2023-04-19T17:26:21.156Z,70.75
2023-04-19T17:28:49.062Z,67.50
2023-04-19T17:31:16.512Z,78.75
2023-04-19T17:33:43.708Z,71.25
2023-04-19T17:36:11.071Z,71.50
2023-04-19T17:38:38.556Z,69.25
2023-04-19T17:41:08.679Z,59.75
2023-04-19T17:43:36.013Z,66.75
2023-04-19T17:46:03.426Z,61.50
2023-04-19T17:48:30.882Z,66.50
2023-04-19T17:50:58.146Z,72.25
2023-04-19T17:53:25.283Z,61.00
2023-04-19T17:55:52.789Z,73.25
2023-04-19T17:58:19.908Z,73.25
2023-04-19T18:00:47.676Z,90.00
2023-04-19T18:03:15.189Z,85.75
2023-04-19T18:05:43.319Z,81.25
2023-04-19T18:08:10.617Z,88.25
2023-04-19T18:10:38.052Z,83.00
2023-04-19T18:13:05.314Z,84.50
2023-04-19T18:15:33.197Z,82.75
2023-04-19T18:18:01.748Z,84.50
2023-04-19T18:20:29.193Z,79.50
2023-04-19T18:23:00.123Z,76.75
2023-04-19T18:25:29.168Z,76.50
2023-04-19T18:27:56.249Z,81.00
2023-04-19T18:30:23.754Z,71.50
2023-04-19T18:32:50.930Z,69.50
2023-04-19T18:35:18.514Z,72.75
2023-04-19T18:37:45.706Z,77.25
2023-04-19T18:40:13.631Z,73.00
2023-04-19T18:42:40.769Z,70.25
2023-04-19T18:45:09.017Z,66.00
2023-04-19T18:47:36.267Z,82.25
2023-04-19T18:50:06.301Z,90.50
2023-04-19T18:52:35.657Z,91.75
2023-04-19T18:55:04.462Z,87.00
2023-04-19T18:57:34.671Z,80.75
2023-04-19T19:00:05.518Z,83.75
2023-04-19T19:02:34.556Z,77.00
2023-04-19T19:05:02.678Z,80.75
2023-04-19T19:07:36.688Z,74.00
2023-04-19T19:10:17.347Z,74.25
2023-04-19T19:12:47.315Z,72.25
2023-04-19T19:15:15.193Z,74.25
2023-04-19T19:17:56.680Z,74.25
2023-04-19T19:20:24.736Z,62.50
2023-04-19T19:22:51.956Z,69.00
2023-04-19T19:25:19.368Z,66.25
2023-04-19T19:28:05.616Z,73.50
2023-04-19T19:30:34.943Z,76.00
2023-04-19T19:33:03.079Z,63.00
2023-04-19T19:35:30.547Z,69.00
2023-04-19T19:37:57.914Z,68.75
2023-04-19T19:40:25.428Z,72.00
2023-04-19T19:42:52.451Z,69.75
2023-04-19T19:45:20.773Z,70.50
2023-04-19T19:47:50.030Z,63.50
2023-04-19T19:52:48.135Z,64.00
2023-04-19T19:55:15.660Z,72.25
2023-04-19T20:00:40.015Z,55.50
2023-04-19T20:03:06.663Z,76.00
2023-04-19T20:05:35.263Z,72.75
2023-04-19T20:08:08.061Z,92.75
2023-04-19T20:10:36.713Z,110.25
2023-04-19T20:13:06.127Z,137.00
2023-04-19T20:15:35.894Z,80.75
2023-04-19T20:18:04.540Z,76.50
2023-04-19T20:20:32.238Z,90.25
2023-04-19T20:22:59.325Z,81.25
2023-04-19T20:25:26.992Z,83.50
2023-04-19T20:27:54.789Z,76.75
2023-04-19T20:30:27.073Z,81.25
2023-04-19T20:32:54.551Z,88.75
2023-04-19T20:35:22.163Z,79.00
2023-04-19T20:37:51.127Z,83.00
2023-04-19T20:40:18.754Z,78.00
2023-04-19T20:42:45.833Z,80.75
2023-04-19T20:45:14.545Z,78.75
2023-04-19T20:47:42.993Z,80.00
2023-04-19T20:50:11.119Z,77.00
2023-04-19T20:52:38.503Z,84.25
2023-04-19T20:55:06.683Z,75.50
2023-04-19T20:57:33.676Z,79.75
2023-04-19T21:00:02.274Z,69.75
2023-04-19T21:02:29.766Z,73.00
2023-04-19T21:04:57.192Z,69.50
2023-04-19T21:07:24.221Z,74.50
2023-04-19T21:09:52.137Z,74.50
2023-04-19T21:12:19.260Z,73.50
2023-04-19T21:14:49.450Z,79.25
2023-04-19T21:17:16.970Z,70.00
2023-04-19T21:19:44.393Z,73.75
2023-04-19T21:22:11.457Z,82.50
2023-04-19T21:24:38.854Z,77.50
2023-04-19T21:27:05.928Z,76.75
2023-04-19T21:29:33.506Z,79.75
2023-04-19T21:32:00.956Z,77.50
2023-04-19T21:34:28.729Z,78.50
2023-04-19T21:36:58.066Z,78.00
2023-04-19T21:39:25.607Z,73.50
2023-04-19T21:41:52.720Z,58.75
2023-04-19T21:44:30.532Z,67.25
2023-04-19T21:46:58.598Z,66.25
2023-04-19T21:49:25.896Z,70.25
2023-04-19T21:51:53.087Z,69.00
2023-04-19T21:54:31.023Z,61.00
2023-04-19T21:57:01.858Z,66.00
2023-04-19T21:59:30.994Z,57.50
2023-04-19T22:01:59.195Z,66.75
2023-04-19T22:04:31.041Z,61.75
2023-04-19T22:07:02.416Z,61.25
2023-04-19T22:09:30.465Z,69.25
2023-04-19T22:11:57.951Z,60.25
2023-04-19T22:14:25.362Z,69.50
2023-04-19T22:16:54.053Z,74.75
2023-04-19T22:19:24.593Z,66.00
2023-04-19T22:21:53.527Z,72.00
2023-04-19T22:24:22.257Z,66.00
2023-04-19T22:26:50.319Z,76.75
2023-04-19T22:29:18.114Z,76.25
2023-04-19T22:31:45.479Z,74.25
2023-04-19T22:34:12.914Z,76.75
2023-04-19T22:36:39.985Z,71.00
2023-04-19T22:39:07.470Z,73.75
2023-04-19T22:41:34.585Z,67.00
2023-04-19T22:44:02.062Z,72.50
2023-04-19T22:46:29.207Z,78.25
2023-04-19T22:48:57.998Z,67.50
2023-04-19T22:51:25.551Z,57.00
2023-04-19T22:53:52.762Z,65.50
2023-04-19T22:56:20.199Z,66.00
2023-04-19T22:58:47.738Z,64.00
2023-04-19T23:01:14.861Z,70.50
2023-04-19T23:03:42.428Z,65.50
2023-04-19T23:06:09.797Z,66.50
2023-04-19T23:08:37.054Z,73.00
2023-04-19T23:11:04.206Z,70.00
2023-04-19T23:13:31.508Z,67.25
2023-04-19T23:15:58.665Z,70.25
2023-04-19T23:18:26.615Z,69.75
2023-04-19T23:20:53.715Z,71.00
2023-04-19T23:23:20.962Z,67.00
2023-04-19T23:25:47.920Z,61.00
2023-04-19T23:28:15.548Z,72.75
2023-04-19T23:30:42.425Z,62.25
2023-04-19T23:33:09.776Z,75.50
2023-04-19T23:35:37.113Z,80.75
2023-04-19T23:38:04.289Z,47.75
2023-04-19T23:40:31.348Z,76.00
2023-04-19T23:42:58.923Z,80.50
2023-04-19T23:45:25.924Z,75.50
2023-04-19T23:47:53.344Z,70.75
2023-04-19T23:50:20.773Z,73.25
2023-04-19T23:52:47.976Z,60.50
2023-04-19T23:55:15.414Z,63.00
2023-04-19T23:57:42.829Z,64.25
